Time;durP1;ratioP1;P1;durP2;ratioP2;P2;SDS_P1;SDS_P2;PMS_P1;PMS_P2;Temp;Humidity;BMP_temperature;BMP_pressure;BME280_temperature;BME280_humidity;BME280_pressure;Samples;Min_cycle;Max_cycle;Signal;HPM_P1;HPM_P2
2022/07/10 00:01:30;;;;;;;6.20;5.60;;;;;13.80;94850.00;;;;7391623;19;20479;-74
2022/07/10 00:03:58;;;;;;;6.75;6.13;;;;;13.80;94848.00;;;;7392194;19;20132;-75
2022/07/10 00:06:26;;;;;;;7.85;5.75;;;;;13.70;94849.00;;;;7391610;19;20133;-74
2022/07/10 00:09:00;;;;;;;6.78;6.07;;;;;13.60;94853.00;;;;7391989;19;20614;-75
2022/07/10 00:11:35;;;;;;;10.45;6.53;;;;;13.90;94848.00;;;;7394319;19;20179;-74
2022/07/10 00:14:16;;;;;;;8.77;6.55;;;;;13.80;94852.00;;;;7390064;19;20164;-75
2022/07/10 00:16:43;;;;;;;8.07;6.43;;;;;13.80;94859.00;;;;7390964;19;20619;-74
2022/07/10 00:19:17;;;;;;;7.85;6.30;;;;;13.90;94845.00;;;;7393117;19;20129;-74
2022/07/10 00:21:45;;;;;;;9.18;7.45;;;;;13.90;94844.00;;;;7391413;19;20121;-74
2022/07/10 00:24:13;;;;;;;7.38;6.60;;;;;13.90;94845.00;;;;7390584;19;20149;-75
2022/07/10 00:26:47;;;;;;;6.50;5.70;;;;;13.80;94841.00;;;;7389584;19;20124;-74
2022/07/10 00:29:18;;;;;;;9.23;7.32;;;;;13.80;94839.00;;;;7393611;19;20125;-74
2022/07/10 00:31:45;;;;;;;7.85;7.10;;;;;13.80;94842.00;;;;7388724;19;20204;-76
2022/07/10 00:34:19;;;;;;;7.95;6.85;;;;;13.70;94839.00;;;;7388605;19;20141;-76
2022/07/10 00:36:47;;;;;;;7.28;6.55;;;;;13.70;94838.00;;;;7391135;19;20161;-76
2022/07/10 00:39:14;;;;;;;7.13;6.53;;;;;13.70;94842.00;;;;7390062;19;20152;-76
2022/07/10 00:41:48;;;;;;;8.98;7.05;;;;;13.70;94830.00;;;;7388271;19;20128;-77
2022/07/10 00:44:16;;;;;;;8.23;6.95;;;;;13.60;94835.00;;;;7392336;19;20144;-75
2022/07/10 00:46:44;;;;;;;9.75;7.03;;;;;13.50;94831.00;;;;7389878;19;20182;-75
2022/07/10 00:49:18;;;;;;;10.07;7.43;;;;;13.60;94828.00;;;;7389638;19;20120;-76
2022/07/10 00:51:46;;;;;;;9.43;7.97;;;;;13.50;94834.00;;;;7391007;19;20639;-75
2022/07/10 00:54:13;;;;;;;9.15;8.20;;;;;13.50;94830.00;;;;7388296;19;20141;-76
2022/07/10 00:56:48;;;;;;;8.50;7.70;;;;;13.40;94828.00;;;;7391075;19;20580;-76
2022/07/10 00:59:16;;;;;;;9.02;7.97;;;;;13.40;94827.00;;;;7388109;19;20133;-76
2022/07/10 01:01:45;;;;;;;8.57;7.00;;;;;13.50;94822.00;;;;7389012;19;20569;-77
2022/07/10 01:04:20;;;;;;;9.13;7.65;;;;;13.50;94818.00;;;;7390165;19;20631;-77
2022/07/10 01:06:47;;;;;;;8.48;6.95;;;;;13.30;94818.00;;;;7393183;19;20141;-76
2022/07/10 01:09:15;;;;;;;7.78;6.70;;;;;13.20;94812.00;;;;7397026;19;20651;-77
2022/07/10 01:11:56;;;;;;;6.75;6.05;;;;;13.10;94815.00;;;;7394492;19;20175;-77
2022/07/10 01:14:25;;;;;;;9.10;7.00;;;;;13.20;94813.00;;;;7396240;19;20162;-77
2022/07/10 01:16:59;;;;;;;8.35;6.97;;;;;13.40;94821.00;;;;7396335;19;20135;-77
2022/07/10 01:19:27;;;;;;;8.18;7.38;;;;;13.30;94818.00;;;;7394675;19;20137;-77
2022/07/10 01:21:54;;;;;;;9.57;8.52;;;;;13.30;94813.00;;;;7396454;19;20141;-77
2022/07/10 01:24:28;;;;;;;9.50;8.50;;;;;13.30;94805.00;;;;7399104;19;20168;-77
2022/07/10 01:26:56;;;;;;;10.52;7.57;;;;;13.40;94810.00;;;;7396319;19;20166;-77
2022/07/10 01:29:24;;;;;;;7.97;6.72;;;;;13.30;94813.00;;;;7399283;19;20179;-77
2022/07/10 01:32:00;;;;;;;10.80;9.43;;;;;13.30;94809.00;;;;7397763;19;20129;-77
2022/07/10 01:34:29;;;;;;;10.13;8.45;;;;;13.30;94807.00;;;;7396283;19;20139;-77
2022/07/10 01:36:56;;;;;;;9.50;8.50;;;;;13.30;94811.00;;;;7396501;19;20564;-77
2022/07/10 01:39:30;;;;;;;11.57;10.35;;;;;13.20;94802.00;;;;7398013;19;20208;-77
2022/07/10 01:41:58;;;;;;;11.48;10.32;;;;;13.30;94799.00;;;;7394534;19;20592;-77
2022/07/10 01:44:26;;;;;;;12.15;10.93;;;;;13.30;94801.00;;;;7395828;19;20515;-77
2022/07/10 01:47:00;;;;;;;14.85;13.30;;;;;13.40;94803.00;;;;7395143;19;20166;-77
2022/07/10 01:49:28;;;;;;;14.95;13.05;;;;;13.50;94801.00;;;;7398146;19;20133;-77
2022/07/10 01:51:55;;;;;;;15.13;13.50;;;;;13.60;94800.00;;;;7398054;19;20450;-77
2022/07/10 01:54:29;;;;;;;15.45;13.85;;;;;13.70;94806.00;;;;7398005;19;20124;-77
2022/07/10 01:56:57;;;;;;;15.48;13.98;;;;;13.70;94813.00;;;;7397428;19;20149;-77
2022/07/10 01:59:24;;;;;;;16.77;14.98;;;;;13.90;94813.00;;;;7393032;19;20473;-78
2022/07/10 02:01:58;;;;;;;15.55;13.95;;;;;14.00;94813.00;;;;7394994;19;20504;-78
2022/07/10 02:04:41;;;;;;;15.82;13.55;;;;;14.00;94820.00;;;;7396752;19;20254;-76
2022/07/10 02:07:18;;;;;;;17.08;15.38;;;;;13.90;94807.00;;;;7397625;19;20498;-75
2022/07/10 02:09:46;;;;;;;17.70;15.05;;;;;14.00;94807.00;;;;7395450;19;20129;-76
2022/07/10 02:12:15;;;;;;;15.52;13.65;;;;;14.00;94813.00;;;;7394787;19;20262;-75
2022/07/10 02:14:49;;;;;;;18.35;14.23;;;;;13.90;94817.00;;;;7395563;19;20762;-76
2022/07/10 02:17:17;;;;;;;15.80;13.43;;;;;13.90;94820.00;;;;7398743;19;20133;-76
2022/07/10 02:19:44;;;;;;;14.75;12.75;;;;;14.00;94830.00;;;;7391779;19;20141;-78
2022/07/10 02:22:18;;;;;;;14.25;12.70;;;;;14.00;94810.00;;;;7395984;19;20137;-78
2022/07/10 02:24:45;;;;;;;18.42;13.60;;;;;13.90;94824.00;;;;7397299;19;20143;-75
2022/07/10 02:27:13;;;;;;;13.30;11.70;;;;;13.90;94821.00;;;;7396368;19;20149;-77
2022/07/10 02:29:47;;;;;;;14.80;12.85;;;;;13.90;94820.00;;;;7395235;19;20196;-77
2022/07/10 02:32:15;;;;;;;16.40;13.95;;;;;13.80;94825.00;;;;7392677;19;20476;-77
2022/07/10 02:34:42;;;;;;;13.38;11.98;;;;;13.80;94831.00;;;;7394145;19;20624;-77
2022/07/10 02:37:16;;;;;;;16.48;14.77;;;;;13.70;94822.00;;;;7397083;19;20152;-77
2022/07/10 02:39:44;;;;;;;14.68;13.27;;;;;13.60;94822.00;;;;7392196;19;20725;-77
2022/07/10 02:42:11;;;;;;;15.43;13.82;;;;;13.60;94826.00;;;;7392909;19;20141;-76
2022/07/10 02:44:45;;;;;;;15.63;14.10;;;;;13.60;94817.00;;;;7393891;19;20156;-77
2022/07/10 02:47:13;;;;;;;15.13;13.63;;;;;13.60;94829.00;;;;7394400;19;20482;-78
2022/07/10 02:49:40;;;;;;;16.58;14.98;;;;;13.60;94820.00;;;;7392654;19;20160;-75
2022/07/10 02:52:14;;;;;;;18.80;15.52;;;;;13.60;94819.00;;;;7392735;19;20157;-75
2022/07/10 02:54:42;;;;;;;16.65;14.98;;;;;13.60;94812.00;;;;7397770;19;20883;-77
2022/07/10 02:57:09;;;;;;;16.33;14.82;;;;;13.50;94816.00;;;;7391447;19;20144;-78
2022/07/10 02:59:43;;;;;;;16.75;14.80;;;;;13.30;94817.00;;;;7395054;19;20132;-76
2022/07/10 03:02:10;;;;;;;17.33;15.32;;;;;13.50;94814.00;;;;7394246;19;20129;-76
2022/07/10 03:04:38;;;;;;;17.77;15.90;;;;;13.50;94812.00;;;;7398106;19;20141;-75
2022/07/10 03:07:12;;;;;;;17.10;15.57;;;;;13.50;94821.00;;;;7392459;19;20148;-78
2022/07/10 03:09:39;;;;;;;17.88;15.40;;;;;13.50;94821.00;;;;7394247;19;20607;-75
2022/07/10 03:12:07;;;;;;;17.30;15.40;;;;;13.50;94820.00;;;;7393787;19;20168;-78
2022/07/10 03:14:41;;;;;;;18.52;16.70;;;;;13.50;94820.00;;;;7393544;19;20148;-78
2022/07/10 03:17:08;;;;;;;17.50;15.85;;;;;13.50;94813.00;;;;7395421;19;20153;-76
2022/07/10 03:19:36;;;;;;;18.65;15.98;;;;;13.50;94811.00;;;;7392921;19;20628;-76
2022/07/10 03:22:10;;;;;;;17.45;15.75;;;;;13.40;94814.00;;;;7393914;19;20753;-76
2022/07/10 03:24:38;;;;;;;17.45;15.65;;;;;13.50;94821.00;;;;7393400;19;20156;-76
2022/07/10 03:27:05;;;;;;;16.55;14.80;;;;;13.50;94814.00;;;;7392959;19;20144;-76
2022/07/10 03:29:40;;;;;;;16.48;14.77;;;;;13.50;94814.00;;;;7390742;19;20136;-76
2022/07/10 03:32:08;;;;;;;15.32;13.93;;;;;13.30;94824.00;;;;7392723;19;20129;-76
2022/07/10 03:34:36;;;;;;;19.13;13.52;;;;;13.30;94815.00;;;;7393328;19;20572;-76
2022/07/10 03:37:10;;;;;;;15.50;12.23;;;;;13.30;94823.00;;;;7393397;19;20132;-76
2022/07/10 03:39:37;;;;;;;12.45;11.05;;;;;13.20;94821.00;;;;7390904;19;20168;-78
2022/07/10 03:42:06;;;;;;;11.88;10.35;;;;;13.10;94815.00;;;;7390681;19;20124;-75
2022/07/10 03:44:40;;;;;;;15.15;9.93;;;;;13.10;94814.00;;;;7393399;19;20494;-75
2022/07/10 03:47:08;;;;;;;12.75;9.25;;;;;13.00;94821.00;;;;7395964;19;20878;-76
2022/07/10 03:49:35;;;;;;;10.95;9.43;;;;;12.80;94809.00;;;;7390815;19;20190;-76
2022/07/10 03:52:09;;;;;;;9.70;8.73;;;;;12.80;94827.00;;;;7390364;19;20607;-76
2022/07/10 03:54:37;;;;;;;10.93;8.63;;;;;12.80;94819.00;;;;7391819;19;20179;-77
2022/07/10 03:59:57;;;;;;;12.18;8.57;;;;;12.80;94817.00;;;;7389512;19;20167;-75
2022/07/10 04:02:25;;;;;;;11.75;8.50;;;;;12.70;94812.00;;;;7389073;19;20144;-76
2022/07/10 04:04:53;;;;;;;9.57;7.78;;;;;12.70;94803.00;;;;7391565;19;20151;-76
2022/07/10 04:07:26;;;;;;;11.35;8.52;;;;;12.70;94813.00;;;;7395792;19;20125;-75
2022/07/10 04:09:54;;;;;;;8.93;8.02;;;;;12.60;94810.00;;;;7390015;19;20591;-76
2022/07/10 04:12:21;;;;;;;12.93;7.60;;;;;12.70;94813.00;;;;7387850;19;20251;-77
2022/07/10 04:15:02;;;;;;;9.27;7.00;;;;;12.60;94811.00;;;;7391130;19;20148;-77
2022/07/10 04:17:32;;;;;;;8.77;7.30;;;;;12.60;94822.00;;;;7389645;19;20594;-77
2022/07/10 04:20:07;;;;;;;9.68;7.18;;;;;12.60;94821.00;;;;7390878;19;20591;-78
2022/07/10 04:22:34;;;;;;;7.35;6.50;;;;;12.70;94818.00;;;;7391553;19;20125;-77
2022/07/10 04:25:03;;;;;;;8.63;6.10;;;;;12.50;94808.00;;;;7391010;19;20612;-78
2022/07/10 04:27:37;;;;;;;10.98;6.38;;;;;12.40;94803.00;;;;7391512;19;20462;-77
2022/07/10 04:30:06;;;;;;;12.35;5.93;;;;;12.40;94809.00;;;;7390861;19;20160;-78
2022/07/10 04:32:33;;;;;;;8.35;5.53;;;;;12.50;94805.00;;;;7390513;19;20145;-77
2022/07/10 04:35:08;;;;;;;10.20;5.57;;;;;12.60;94810.00;;;;7386784;19;20140;-78
2022/07/10 04:37:36;;;;;;;6.60;5.22;;;;;12.60;94816.00;;;;7392208;19;20125;-77
2022/07/10 04:40:05;;;;;;;6.32;5.28;;;;;12.60;94810.00;;;;7385655;19;20140;-76
2022/07/10 04:42:38;;;;;;;8.32;5.32;;;;;12.50;94806.00;;;;7398517;19;20196;-77
2022/07/10 04:45:06;;;;;;;8.27;4.97;;;;;12.50;94811.00;;;;7396214;19;20144;-77
2022/07/10 04:47:33;;;;;;;8.38;5.10;;;;;12.40;94812.00;;;;7398911;19;20204;-77
2022/07/10 04:50:08;;;;;;;8.50;4.85;;;;;12.50;94812.00;;;;7397809;19;20152;-77
2022/07/10 04:52:36;;;;;;;8.23;5.15;;;;;12.70;94818.00;;;;7396094;19;20960;-77
2022/07/10 04:55:03;;;;;;;7.65;4.57;;;;;12.80;94812.00;;;;7398663;19;20200;-78
2022/07/10 04:57:38;;;;;;;8.73;4.45;;;;;12.90;94811.00;;;;7397078;19;20141;-78
2022/07/10 05:00:06;;;;;;;5.90;4.28;;;;;13.00;94807.00;;;;7396070;19;20145;-77
2022/07/10 05:02:34;;;;;;;8.80;4.10;;;;;13.00;94805.00;;;;7397114;19;21146;-77
2022/07/10 05:05:09;;;;;;;6.00;4.18;;;;;13.00;94808.00;;;;7401137;19;20583;-75
2022/07/10 05:07:36;;;;;;;4.38;3.67;;;;;13.00;94816.00;;;;7398934;19;20154;-75
2022/07/10 05:10:04;;;;;;;7.03;3.92;;;;;13.00;94821.00;;;;7398239;19;20691;-76
2022/07/10 05:12:45;;;;;;;4.28;3.78;;;;;12.90;94825.00;;;;7397531;19;20199;-75
2022/07/10 05:15:15;;;;;;;7.35;3.85;;;;;12.80;94821.00;;;;7399141;19;20215;-76
2022/07/10 05:17:49;;;;;;;10.07;3.58;;;;;12.80;94828.00;;;;7399938;19;20166;-75
2022/07/10 05:20:17;;;;;;;7.60;3.90;;;;;13.00;94823.00;;;;7393706;19;20152;-76
2022/07/10 05:22:44;;;;;;;6.47;3.92;;;;;12.90;94819.00;;;;7401244;19;20154;-77
2022/07/10 05:25:18;;;;;;;6.88;3.80;;;;;12.80;94820.00;;;;7399478;19;20487;-78
2022/07/10 05:27:46;;;;;;;6.45;4.03;;;;;12.60;94822.00;;;;7395249;19;20173;-75
2022/07/10 05:30:13;;;;;;;9.30;3.92;;;;;12.60;94829.00;;;;7395396;19;20947;-77
2022/07/10 05:32:54;;;;;;;6.25;3.60;;;;;12.60;94835.00;;;;7395737;19;20604;-76
2022/07/10 05:35:22;;;;;;;9.82;3.63;;;;;12.60;94829.00;;;;7397880;19;20128;-76
2022/07/10 05:37:56;;;;;;;7.65;3.17;;;;;12.60;94829.00;;;;7386085;19;20144;-77
2022/07/10 05:40:24;;;;;;;4.57;3.38;;;;;12.70;94832.00;;;;7394749;19;20160;-77
2022/07/10 05:42:52;;;;;;;7.15;3.15;;;;;12.70;94826.00;;;;7398091;19;20178;-78
2022/07/10 05:45:25;;;;;;;10.48;3.20;;;;;12.80;94827.00;;;;7397613;19;20144;-77
2022/07/10 05:47:53;;;;;;;9.68;3.25;;;;;12.80;94829.00;;;;7397911;19;20132;-76
2022/07/10 05:50:21;;;;;;;5.82;2.85;;;;;12.80;94825.00;;;;7397807;19;20141;-77
2022/07/10 05:52:54;;;;;;;5.15;2.70;;;;;12.80;94827.00;;;;7396679;19;20596;-77
2022/07/10 05:55:22;;;;;;;4.45;2.58;;;;;12.80;94829.00;;;;7396627;19;20140;-77
2022/07/10 05:57:50;;;;;;;7.25;3.00;;;;;12.70;94833.00;;;;7396427;19;20132;-77
2022/07/10 06:00:26;;;;;;;5.28;3.10;;;;;12.90;94826.00;;;;7392909;19;20172;-77
2022/07/10 06:02:53;;;;;;;6.55;2.65;;;;;12.80;94832.00;;;;7395385;19;20500;-77
2022/07/10 06:05:21;;;;;;;5.68;2.63;;;;;12.80;94828.00;;;;7396030;19;20169;-77
2022/07/10 06:07:55;;;;;;;8.20;3.03;;;;;13.00;94827.00;;;;7397931;19;20487;-75
2022/07/10 06:10:23;;;;;;;5.68;2.85;;;;;13.00;94832.00;;;;7396960;19;20228;-77
2022/07/10 06:12:50;;;;;;;6.72;2.67;;;;;12.90;94830.00;;;;7394192;19;20144;-77
2022/07/10 06:15:24;;;;;;;4.38;2.63;;;;;13.00;94830.00;;;;7397136;19;20607;-76
2022/07/10 06:17:52;;;;;;;5.32;2.38;;;;;13.00;94838.00;;;;7398167;19;20600;-76
2022/07/10 06:20:19;;;;;;;7.25;2.50;;;;;13.20;94844.00;;;;7395829;19;20220;-75
2022/07/10 06:22:54;;;;;;;5.78;2.83;;;;;13.20;94841.00;;;;7396314;19;20164;-76
2022/07/10 06:25:22;;;;;;;8.48;2.80;;;;;13.30;94838.00;;;;7395858;19;20211;-75
2022/07/10 06:27:50;;;;;;;5.45;2.75;;;;;13.00;94843.00;;;;7397447;19;20152;-76
2022/07/10 06:30:24;;;;;;;4.95;2.45;;;;;12.90;94846.00;;;;7394456;19;20156;-77
2022/07/10 06:32:52;;;;;;;4.90;2.40;;;;;12.80;94851.00;;;;7396007;19;20140;-77
2022/07/10 06:35:19;;;;;;;6.55;2.70;;;;;12.70;94854.00;;;;7396353;19;20145;-77
2022/07/10 06:37:53;;;;;;;4.55;2.28;;;;;12.80;94862.00;;;;7395997;19;20160;-76
2022/07/10 06:40:21;;;;;;;4.95;2.30;;;;;12.70;94858.00;;;;7393502;19;20639;-77
2022/07/10 06:42:49;;;;;;;5.75;2.63;;;;;12.50;94864.00;;;;7393317;19;20152;-77
2022/07/10 06:45:23;;;;;;;10.73;3.20;;;;;12.70;94859.00;;;;7397894;19;20135;-76
2022/07/10 06:47:57;;;;;;;6.20;2.35;;;;;12.90;94858.00;;;;7395606;19;20604;-77
2022/07/10 06:50:34;;;;;;;6.68;2.08;;;;;13.00;94864.00;;;;7395585;19;20159;-77
2022/07/10 06:53:02;;;;;;;8.00;2.65;;;;;13.00;94860.00;;;;7393432;19;20164;-77
2022/07/10 06:55:30;;;;;;;6.05;2.45;;;;;13.10;94855.00;;;;7395173;19;20186;-77
2022/07/10 06:58:04;;;;;;;7.60;2.30;;;;;13.10;94857.00;;;;7395749;19;20148;-78
2022/07/10 07:00:32;;;;;;;7.35;1.95;;;;;13.10;94870.00;;;;7392244;19;20136;-77
2022/07/10 07:02:59;;;;;;;4.53;2.10;;;;;13.00;94865.00;;;;7392944;19;20144;-77
2022/07/10 07:05:33;;;;;;;6.20;2.20;;;;;12.90;94864.00;;;;7393620;19;20143;-75
2022/07/10 07:08:01;;;;;;;6.95;2.35;;;;;12.80;94872.00;;;;7395398;19;20156;-75
2022/07/10 07:10:28;;;;;;;7.90;2.80;;;;;12.60;94881.00;;;;7396360;19;20157;-76
2022/07/10 07:13:09;;;;;;;4.70;2.38;;;;;12.50;94874.00;;;;7390741;19;20172;-74
2022/07/10 07:15:41;;;;;;;5.47;2.35;;;;;12.50;94879.00;;;;7395288;19;20136;-75
2022/07/10 07:18:16;;;;;;;5.13;2.13;;;;;12.40;94891.00;;;;7396021;19;20153;-74
2022/07/10 07:23:36;;;;;;;7.68;2.50;;;;;12.60;94887.00;;;;7395405;19;20154;-75
2022/07/10 07:26:04;;;;;;;3.90;2.25;;;;;12.70;94880.00;;;;7391731;19;20645;-75
2022/07/10 07:28:31;;;;;;;5.35;2.75;;;;;12.80;94883.00;;;;7394717;19;20141;-75
2022/07/10 07:31:06;;;;;;;9.00;2.70;;;;;12.70;94879.00;;;;7391558;19;20152;-76
2022/07/10 07:33:41;;;;;;;4.88;2.80;;;;;12.70;94886.00;;;;7392249;19;20156;-76
2022/07/10 07:36:15;;;;;;;6.22;2.25;;;;;12.50;94888.00;;;;7393953;19;20622;-76
2022/07/10 07:38:43;;;;;;;9.40;3.00;;;;;12.50;94880.00;;;;7394847;19;20127;-75
2022/07/10 07:41:11;;;;;;;5.55;3.13;;;;;12.50;94882.00;;;;7391084;19;20156;-75
2022/07/10 07:43:45;;;;;;;9.65;3.13;;;;;12.60;94878.00;;;;7393172;19;20214;-75
2022/07/10 07:46:12;;;;;;;5.53;2.67;;;;;12.70;94878.00;;;;7395293;19;20133;-75
2022/07/10 07:48:40;;;;;;;5.55;2.75;;;;;12.80;94883.00;;;;7390853;19;20607;-76
2022/07/10 07:51:14;;;;;;;6.53;3.00;;;;;12.90;94880.00;;;;7391637;19;20799;-75
2022/07/10 07:53:42;;;;;;;7.72;2.72;;;;;13.20;94868.00;;;;7395253;19;20623;-74
2022/07/10 07:56:11;;;;;;;8.90;3.05;;;;;13.30;94869.00;;;;7392986;19;20528;-76
2022/07/10 07:58:47;;;;;;;5.43;2.70;;;;;13.40;94873.00;;;;7391426;19;20148;-75
2022/07/10 08:01:14;;;;;;;4.88;2.97;;;;;13.40;94881.00;;;;7388429;19;20125;-75
2022/07/10 08:03:44;;;;;;;4.93;2.95;;;;;13.30;94871.00;;;;7388961;19;20188;-74
2022/07/10 08:06:38;;;;;;;2.90;2.55;;;;;13.10;94878.00;;;;7393525;19;20143;-75
2022/07/10 08:09:06;;;;;;;4.35;2.85;;;;;13.10;94873.00;;;;7392211;19;20605;-76
2022/07/10 08:11:47;;;;;;;6.50;3.08;;;;;13.00;94872.00;;;;7390787;19;20255;-76
2022/07/10 08:14:15;;;;;;;8.13;3.08;;;;;13.00;94863.00;;;;7391462;19;20152;-76
2022/07/10 08:16:50;;;;;;;6.68;3.20;;;;;13.20;94864.00;;;;7390376;19;20159;-76
2022/07/10 08:19:18;;;;;;;5.35;2.67;;;;;13.50;94854.00;;;;7391108;19;20155;-76
2022/07/10 08:21:46;;;;;;;9.27;3.25;;;;;13.80;94855.00;;;;7393437;19;20129;-75
2022/07/10 08:24:20;;;;;;;5.90;2.53;;;;;14.10;94852.00;;;;7390192;19;20162;-74
2022/07/10 08:26:51;;;;;;;10.20;2.97;;;;;14.70;94844.00;;;;7391292;19;20160;-74
2022/07/10 08:29:23;;;;;;;9.70;3.40;;;;;15.70;94847.00;;;;7391058;19;20160;-76
2022/07/10 08:31:56;;;;;;;7.20;2.80;;;;;16.00;94834.00;;;;7388904;19;20616;-74
2022/07/10 08:34:33;;;;;;;6.03;2.58;;;;;16.30;94828.00;;;;7391447;19;20750;-76
2022/07/10 08:37:07;;;;;;;7.55;2.80;;;;;16.20;94829.00;;;;7391848;19;20208;-74
2022/07/10 08:39:35;;;;;;;10.35;3.50;;;;;16.50;94841.00;;;;7389084;19;20160;-76
2022/07/10 08:42:06;;;;;;;4.35;2.53;;;;;16.50;94834.00;;;;7388999;19;20153;-76
2022/07/10 08:44:41;;;;;;;5.72;3.00;;;;;16.20;94830.00;;;;7390452;19;20128;-76
2022/07/10 08:47:11;;;;;;;4.45;2.40;;;;;16.10;94836.00;;;;7390883;19;20132;-75
2022/07/10 08:49:47;;;;;;;5.80;2.55;;;;;15.40;94838.00;;;;7386738;19;20140;-75
2022/07/10 08:52:33;;;;;;;8.50;3.60;;;;;15.40;94836.00;;;;7386995;19;20157;-76
2022/07/10 08:55:04;;;;;;;6.53;3.30;;;;;15.20;94833.00;;;;7390741;19;20145;-76
2022/07/10 08:57:39;;;;;;;8.52;3.20;;;;;16.00;94833.00;;;;7392916;19;20133;-74
2022/07/10 09:00:08;;;;;;;5.65;3.38;;;;;16.70;94822.00;;;;7392075;19;20625;-75
2022/07/10 09:02:35;;;;;;;5.35;2.60;;;;;16.80;94822.00;;;;7388588;19;20193;-75
2022/07/10 09:05:10;;;;;;;10.13;3.40;;;;;16.00;94832.00;;;;7390601;19;20156;-73
2022/07/10 09:07:38;;;;;;;9.27;3.90;;;;;15.90;94834.00;;;;7393237;19;20156;-76
2022/07/10 09:10:11;;;;;;;7.70;3.03;;;;;16.20;94830.00;;;;7389397;19;20640;-74
2022/07/10 09:13:06;;;;;;;4.90;2.58;;;;;15.80;94846.00;;;;7390232;19;20163;-75
2022/07/10 09:15:34;;;;;;;6.00;2.88;;;;;15.80;94837.00;;;;7390561;19;20619;-76
2022/07/10 09:18:09;;;;;;;2.80;2.60;;;;;15.80;94823.00;;;;7390644;19;20522;-76
2022/07/10 09:20:39;;;;;;;4.22;3.17;;;;;16.60;94825.00;;;;7387185;19;20632;-76
2022/07/10 09:23:22;;;;;;;5.80;2.50;;;;;16.10;94832.00;;;;7389710;19;20133;-75
2022/07/10 09:25:57;;;;;;;5.82;2.40;;;;;16.00;94832.00;;;;7391344;19;20157;-77
2022/07/10 09:28:25;;;;;;;3.30;2.38;;;;;16.60;94819.00;;;;7394512;19;20152;-76
2022/07/10 09:31:00;;;;;;;6.50;2.60;;;;;16.80;94837.00;;;;7398325;19;20599;-77
2022/07/10 09:33:36;;;;;;;4.97;2.42;;;;;16.80;94835.00;;;;7395267;19;20163;-75
2022/07/10 09:36:11;;;;;;;3.78;2.58;;;;;17.60;94843.00;;;;7394649;19;20208;-76
2022/07/10 09:38:51;;;;;;;5.50;2.70;;;;;18.10;94841.00;;;;7398578;19;20160;-78
2022/07/10 09:41:23;;;;;;;3.58;2.30;;;;;17.70;94840.00;;;;7394594;19;20611;-78
2022/07/10 09:44:03;;;;;;;6.30;2.28;;;;;17.30;94849.00;;;;7396069;19;20605;-75
2022/07/10 09:46:39;;;;;;;7.43;2.67;;;;;17.00;94852.00;;;;7398100;19;20587;-78
2022/07/10 09:49:15;;;;;;;9.50;2.95;;;;;16.80;94850.00;;;;7397365;19;20137;-77
2022/07/10 09:51:45;;;;;;;7.45;2.90;;;;;16.50;94858.00;;;;7396308;19;20588;-77
2022/07/10 09:54:18;;;;;;;3.10;2.50;;;;;17.10;94854.00;;;;7395902;19;20161;-76
2022/07/10 09:56:52;;;;;;;5.07;2.70;;;;;16.90;94857.00;;;;7394842;19;20214;-76
2022/07/10 09:59:21;;;;;;;6.32;2.80;;;;;17.20;94853.00;;;;7394513;19;20124;-76
2022/07/10 10:01:50;;;;;;;4.05;2.53;;;;;17.50;94851.00;;;;7393975;19;20485;-76
2022/07/10 10:04:27;;;;;;;4.80;2.42;;;;;17.90;94837.00;;;;7394089;19;20148;-76
2022/07/10 10:07:00;;;;;;;5.70;2.85;;;;;18.90;94841.00;;;;7396451;19;20153;-76
2022/07/10 10:09:40;;;;;;;7.32;2.67;;;;;18.80;94823.00;;;;7395037;19;20133;-76
2022/07/10 10:12:31;;;;;;;6.93;2.72;;;;;19.20;94841.00;;;;7393194;19;20192;-77
2022/07/10 10:15:07;;;;;;;4.25;2.50;;;;;19.50;94828.00;;;;7394360;19;20140;-77
2022/07/10 10:17:38;;;;;;;5.90;2.42;;;;;18.80;94852.00;;;;7394568;19;20145;-76
2022/07/10 10:23:01;;;;;;;7.78;2.97;;;;;18.30;94846.00;;;;7395557;19;20141;-76
2022/07/10 10:25:31;;;;;;;4.50;2.45;;;;;18.80;94837.00;;;;7394710;19;20155;-78
2022/07/10 10:28:04;;;;;;;3.78;2.30;;;;;18.40;94849.00;;;;7397601;19;20518;-75
2022/07/10 10:30:45;;;;;;;7.15;2.38;;;;;17.70;94843.00;;;;7397989;19;20133;-77
2022/07/10 10:33:31;;;;;;;5.50;2.25;;;;;18.00;94836.00;;;;7395132;19;20133;-76
2022/07/10 10:36:13;;;;;;;4.90;2.13;;;;;17.10;94829.00;;;;7395639;19;20950;-77
2022/07/10 10:38:51;;;;;;;15.50;8.43;;;;;17.20;94823.00;;;;7392510;19;20153;-78
2022/07/10 10:41:38;;;;;;;5.03;2.60;;;;;18.20;94826.00;;;;7393391;19;20152;-77
2022/07/10 10:44:09;;;;;;;3.50;2.20;;;;;18.70;94817.00;;;;7396984;19;20143;-75
2022/07/10 10:47:05;;;;;;;5.30;2.28;;;;;19.20;94829.00;;;;7395614;19;20133;-78
2022/07/10 10:49:53;;;;;;;3.70;2.03;;;;;18.50;94821.00;;;;7393512;19;20164;-77
2022/07/10 10:52:30;;;;;;;3.75;1.73;;;;;18.10;94825.00;;;;7396396;19;20208;-79
2022/07/10 10:54:59;;;;;;;3.70;1.80;;;;;18.30;94802.00;;;;7394077;19;20155;-78
2022/07/10 10:57:51;;;;;;;5.22;2.08;;;;;18.80;94824.00;;;;7394867;19;20149;-78
2022/07/10 11:00:37;;;;;;;3.47;1.60;;;;;17.40;94834.00;;;;7394134;19;20132;-77
2022/07/10 11:03:28;;;;;;;4.25;1.50;;;;;17.30;94821.00;;;;7397164;19;20133;-74
2022/07/10 11:06:07;;;;;;;4.97;2.08;;;;;18.60;94816.00;;;;7396776;19;20121;-76
2022/07/10 11:08:39;;;;;;;3.60;1.80;;;;;19.90;94814.00;;;;7391789;19;20141;-77
2022/07/10 11:11:45;;;;;;;2.60;1.55;;;;;19.30;94802.00;;;;7390536;19;20500;-77
2022/07/10 11:14:20;;;;;;;3.08;1.65;;;;;19.40;94829.00;;;;7395978;19;20162;-78
2022/07/10 11:16:55;;;;;;;4.72;1.80;;;;;18.20;94825.00;;;;7397431;19;20136;-78
2022/07/10 11:19:30;;;;;;;5.93;1.67;;;;;19.00;94808.00;;;;7394214;19;20137;-79
2022/07/10 11:22:39;;;;;;;4.07;1.42;;;;;19.50;94812.00;;;;7394616;19;20148;-76
2022/07/10 11:25:35;;;;;;;5.25;1.70;;;;;20.10;94799.00;;;;7394086;19;20169;-82
2022/07/10 11:28:18;;;;;;;4.40;1.58;;;;;19.70;94808.00;;;;7394955;19;20223;-78
2022/07/10 11:30:54;;;;;;;1.48;1.20;;;;;19.90;94811.00;;;;7393789;19;20149;-78
2022/07/10 11:33:28;;;;;;;3.28;1.40;;;;;19.90;94809.00;;;;7394849;19;20208;-77
2022/07/10 11:35:56;;;;;;;5.32;1.60;;;;;20.30;94802.00;;;;7381883;19;20149;-77
2022/07/10 11:38:26;;;;;;;3.35;1.40;;;;;20.80;94817.00;;;;7388867;19;20125;-79
2022/07/10 11:41:01;;;;;;;3.13;1.25;;;;;20.50;94807.00;;;;7390126;19;20591;-79
2022/07/10 11:43:29;;;;;;;3.17;1.50;;;;;20.20;94799.00;;;;7390683;19;20168;-76
2022/07/10 11:46:00;;;;;;;3.55;1.40;;;;;21.00;94800.00;;;;7388419;19;20136;-76
2022/07/10 11:48:40;;;;;;;6.63;1.30;;;;;21.10;94793.00;;;;7389846;19;20640;-76
2022/07/10 11:51:18;;;;;;;6.40;1.08;;;;;21.30;94801.00;;;;7386238;19;20599;-77
2022/07/10 11:54:04;;;;;;;2.78;1.10;;;;;20.20;94799.00;;;;7391488;19;20586;-78
2022/07/10 11:56:34;;;;;;;1.85;1.15;;;;;19.90;94804.00;;;;7392366;19;20145;-77
2022/07/10 11:59:10;;;;;;;4.25;1.23;;;;;20.20;94804.00;;;;7388345;19;20224;-78
2022/07/10 12:01:45;;;;;;;3.05;1.17;;;;;20.10;94802.00;;;;7389941;19;20141;-78
2022/07/10 12:04:25;;;;;;;2.30;1.00;;;;;20.10;94805.00;;;;7389498;19;20235;-77
2022/07/10 12:06:55;;;;;;;1.95;0.93;;;;;20.10;94802.00;;;;7391521;19;20133;-76
2022/07/10 12:09:29;;;;;;;3.67;1.42;;;;;19.70;94808.00;;;;7388683;19;20160;-77
2022/07/10 12:12:19;;;;;;;2.50;1.15;;;;;20.10;94809.00;;;;7382725;19;20200;-78
2022/07/10 12:14:56;;;;;;;2.63;1.00;;;;;20.80;94810.00;;;;7387982;19;20137;-77
2022/07/10 12:17:25;;;;;;;3.53;0.90;;;;;20.80;94812.00;;;;7389697;19;20232;-77
2022/07/10 12:19:55;;;;;;;2.03;1.10;;;;;20.80;94815.00;;;;7391058;19;20452;-76
2022/07/10 12:22:30;;;;;;;2.63;1.10;;;;;20.90;94793.00;;;;7387542;19;20203;-78
2022/07/10 12:24:58;;;;;;;3.00;1.10;;;;;21.10;94809.00;;;;7387761;19;20201;-78
2022/07/10 12:27:41;;;;;;;2.42;1.20;;;;;20.80;94805.00;;;;7387697;19;20144;-78
2022/07/10 12:30:19;;;;;;;5.25;1.20;;;;;20.80;94811.00;;;;7390495;19;20129;-76
2022/07/10 12:32:48;;;;;;;4.07;1.20;;;;;20.70;94808.00;;;;7386997;19;20145;-77
2022/07/10 12:35:16;;;;;;;2.08;1.10;;;;;20.40;94805.00;;;;7384273;19;20163;-76
2022/07/10 12:37:52;;;;;;;2.83;1.20;;;;;20.60;94805.00;;;;7387762;19;20120;-77
2022/07/10 12:40:35;;;;;;;1.95;0.93;;;;;20.20;94802.00;;;;7387538;19;20714;-77
2022/07/10 12:43:12;;;;;;;4.93;1.20;;;;;20.50;94802.00;;;;7385089;19;20125;-77
2022/07/10 12:45:40;;;;;;;4.03;1.02;;;;;21.00;94804.00;;;;7388717;19;20152;-76
2022/07/10 12:48:20;;;;;;;4.75;1.20;;;;;21.30;94798.00;;;;7388550;19;20133;-77